sensor_id;sensor_type;location;lat;lon;timestamp;pressure;altitude;pressure_sealevel;temperature;humidity
11114;BME280;5610;52.154;9.198;2023-04-06T00:01:26;101116.16;;;3.23;91.05
11114;BME280;5610;52.154;9.198;2023-04-06T00:04:11;101105.56;;;3.26;89.55
11114;BME280;5610;52.154;9.198;2023-04-06T00:06:56;101107.97;;;3.36;92.07
11114;BME280;5610;52.154;9.198;2023-04-06T00:09:42;101113.19;;;3.39;92.53
11114;BME280;5610;52.154;9.198;2023-04-06T00:12:27;101112.28;;;3.38;94.98
11114;BME280;5610;52.154;9.198;2023-04-06T00:15:14;101099.97;;;3.40;94.77
11114;BME280;5610;52.154;9.198;2023-04-06T00:17:59;101101.84;;;3.35;95.67
11114;BME280;5610;52.154;9.198;2023-04-06T00:20:44;101102.84;;;3.29;96.19
11114;BME280;5610;52.154;9.198;2023-04-06T00:23:29;101106.47;;;3.24;97.06
11114;BME280;5610;52.154;9.198;2023-04-06T00:26:15;101094.38;;;3.17;99.14
11114;BME280;5610;52.154;9.198;2023-04-06T00:29:03;101091.91;;;3.09;98.67
11114;BME280;5610;52.154;9.198;2023-04-06T00:31:50;101074.44;;;3.07;98.03
11114;BME280;5610;52.154;9.198;2023-04-06T00:34:35;101084.16;;;3.03;97.88
11114;BME280;5610;52.154;9.198;2023-04-06T00:37:21;101079.97;;;2.94;97.96
11114;BME280;5610;52.154;9.198;2023-04-06T00:40:07;101085.28;;;2.93;100.00
11114;BME280;5610;52.154;9.198;2023-04-06T00:42:52;101086.09;;;2.95;98.88
11114;BME280;5610;52.154;9.198;2023-04-06T00:45:38;101086.09;;;2.96;99.81
11114;BME280;5610;52.154;9.198;2023-04-06T00:48:26;101076.47;;;2.94;99.60
11114;BME280;5610;52.154;9.198;2023-04-06T00:51:11;101073.97;;;2.89;95.71
11114;BME280;5610;52.154;9.198;2023-04-06T00:53:57;101082.00;;;2.83;96.41
11114;BME280;5610;52.154;9.198;2023-04-06T00:56:42;101074.97;;;2.84;97.45
11114;BME280;5610;52.154;9.198;2023-04-06T00:59:28;101068.91;;;2.80;98.13
11114;BME280;5610;52.154;9.198;2023-04-06T01:02:15;101072.53;;;2.76;99.12
11114;BME280;5610;52.154;9.198;2023-04-06T01:05:07;101075.28;;;2.70;100.00
11114;BME280;5610;52.154;9.198;2023-04-06T01:08:05;101069.13;;;2.71;100.00
11114;BME280;5610;52.154;9.198;2023-04-06T01:10:51;101064.00;;;2.65;99.27
11114;BME280;5610;52.154;9.198;2023-04-06T01:13:43;101066.56;;;2.68;97.20
11114;BME280;5610;52.154;9.198;2023-04-06T01:16:37;101056.00;;;2.69;95.41
11114;BME280;5610;52.154;9.198;2023-04-06T01:19:27;101048.16;;;2.68;99.97
11114;BME280;5610;52.154;9.198;2023-04-06T01:22:15;101049.75;;;2.73;100.00
11114;BME280;5610;52.154;9.198;2023-04-06T01:25:10;101038.41;;;2.71;99.17
11114;BME280;5610;52.154;9.198;2023-04-06T01:28:02;101044.63;;;2.67;99.75
11114;BME280;5610;52.154;9.198;2023-04-06T01:31:04;101047.44;;;2.60;100.00
11114;BME280;5610;52.154;9.198;2023-04-06T01:34:02;101050.16;;;2.57;99.64
11114;BME280;5610;52.154;9.198;2023-04-06T01:36:48;101045.97;;;2.48;100.00
11114;BME280;5610;52.154;9.198;2023-04-06T01:39:44;101041.81;;;2.36;100.00
11114;BME280;5610;52.154;9.198;2023-04-06T01:42:36;101035.81;;;2.30;100.00
11114;BME280;5610;52.154;9.198;2023-04-06T01:45:22;101042.03;;;2.27;100.00
11114;BME280;5610;52.154;9.198;2023-04-06T01:48:09;101036.75;;;2.27;100.00
11114;BME280;5610;52.154;9.198;2023-04-06T01:50:55;101038.53;;;2.27;100.00
11114;BME280;5610;52.154;9.198;2023-04-06T01:53:46;101039.34;;;2.29;100.00
11114;BME280;5610;52.154;9.198;2023-04-06T01:56:34;101033.28;;;2.25;100.00
11114;BME280;5610;52.154;9.198;2023-04-06T01:59:28;101028.22;;;2.16;100.00
11114;BME280;5610;52.154;9.198;2023-04-06T02:02:15;101028.06;;;2.24;98.92
11114;BME280;5610;52.154;9.198;2023-04-06T02:05:09;101029.91;;;2.20;97.21
11114;BME280;5610;52.154;9.198;2023-04-06T02:07:56;101025.44;;;2.24;100.00
11114;BME280;5610;52.154;9.198;2023-04-06T02:10:49;101021.13;;;2.21;100.00
11114;BME280;5610;52.154;9.198;2023-04-06T02:13:45;101019.31;;;2.23;100.00
11114;BME280;5610;52.154;9.198;2023-04-06T02:16:30;101020.16;;;2.24;100.00
11114;BME280;5610;52.154;9.198;2023-04-06T02:19:16;101019.34;;;2.22;100.00
11114;BME280;5610;52.154;9.198;2023-04-06T02:22:01;101023.91;;;2.13;100.00
11114;BME280;5610;52.154;9.198;2023-04-06T02:24:47;101019.63;;;2.08;100.00
11114;BME280;5610;52.154;9.198;2023-04-06T02:27:32;101010.97;;;2.03;100.00
11114;BME280;5610;52.154;9.198;2023-04-06T02:30:19;101019.88;;;1.96;100.00
11114;BME280;5610;52.154;9.198;2023-04-06T02:33:04;101011.13;;;1.95;100.00
11114;BME280;5610;52.154;9.198;2023-04-06T02:35:58;101008.63;;;1.89;100.00
11114;BME280;5610;52.154;9.198;2023-04-06T02:38:43;101011.47;;;1.78;100.00
11114;BME280;5610;52.154;9.198;2023-04-06T02:41:28;101002.69;;;1.79;100.00
11114;BME280;5610;52.154;9.198;2023-04-06T02:44:15;101009.72;;;1.79;100.00
11114;BME280;5610;52.154;9.198;2023-04-06T02:47:03;101000.88;;;1.81;99.75
11114;BME280;5610;52.154;9.198;2023-04-06T02:49:49;101000.81;;;1.86;100.00
11114;BME280;5610;52.154;9.198;2023-04-06T02:52:35;101000.94;;;1.80;100.00
11114;BME280;5610;52.154;9.198;2023-04-06T02:55:20;100998.88;;;1.94;100.00
11114;BME280;5610;52.154;9.198;2023-04-06T02:58:06;100999.81;;;1.91;100.00
11114;BME280;5610;52.154;9.198;2023-04-06T03:01:08;101006.69;;;1.97;100.00
11114;BME280;5610;52.154;9.198;2023-04-06T03:03:56;100997.09;;;1.96;98.90
11114;BME280;5610;52.154;9.198;2023-04-06T03:06:44;100998.81;;;1.97;96.07
11114;BME280;5610;52.154;9.198;2023-04-06T03:09:39;100994.38;;;2.01;95.19
11114;BME280;5610;52.154;9.198;2023-04-06T03:12:25;100998.69;;;2.03;95.89
11114;BME280;5610;52.154;9.198;2023-04-06T03:15:29;100996.75;;;2.11;94.70
11114;BME280;5610;52.154;9.198;2023-04-06T03:18:27;100987.19;;;2.09;95.14
11114;BME280;5610;52.154;9.198;2023-04-06T03:21:16;100989.16;;;1.99;93.21
11114;BME280;5610;52.154;9.198;2023-04-06T03:24:07;100988.06;;;2.09;95.50
11114;BME280;5610;52.154;9.198;2023-04-06T03:26:52;100993.13;;;2.18;95.10
11114;BME280;5610;52.154;9.198;2023-04-06T03:29:39;100994.16;;;2.10;93.13
11114;BME280;5610;52.154;9.198;2023-04-06T03:32:27;100987.94;;;2.15;95.15
11114;BME280;5610;52.154;9.198;2023-04-06T03:35:13;100989.00;;;2.07;96.62
11114;BME280;5610;52.154;9.198;2023-04-06T03:38:00;100990.75;;;2.06;93.67
11114;BME280;5610;52.154;9.198;2023-04-06T03:40:45;100986.25;;;2.11;95.87
11114;BME280;5610;52.154;9.198;2023-04-06T03:43:31;100986.16;;;2.16;97.49
11114;BME280;5610;52.154;9.198;2023-04-06T03:46:16;100989.00;;;2.07;94.66
11114;BME280;5610;52.154;9.198;2023-04-06T03:49:02;100988.00;;;2.12;93.59
11114;BME280;5610;52.154;9.198;2023-04-06T03:51:48;100986.03;;;2.22;92.41
11114;BME280;5610;52.154;9.198;2023-04-06T03:54:34;100990.34;;;2.25;92.50
11114;BME280;5610;52.154;9.198;2023-04-06T03:57:20;100987.06;;;2.15;92.01
11114;BME280;5610;52.154;9.198;2023-04-06T04:00:07;100989.84;;;2.07;94.22
11114;BME280;5610;52.154;9.198;2023-04-06T04:02:59;100990.22;;;1.89;98.06
11114;BME280;5610;52.154;9.198;2023-04-06T04:05:45;100995.72;;;1.78;100.00
11114;BME280;5610;52.154;9.198;2023-04-06T04:08:31;101000.25;;;1.69;100.00
11114;BME280;5610;52.154;9.198;2023-04-06T04:11:18;100999.56;;;1.59;100.00
11114;BME280;5610;52.154;9.198;2023-04-06T04:14:08;101001.53;;;1.49;100.00
11114;BME280;5610;52.154;9.198;2023-04-06T04:16:53;101003.31;;;1.46;100.00
11114;BME280;5610;52.154;9.198;2023-04-06T04:19:38;101007.78;;;1.42;100.00
11114;BME280;5610;52.154;9.198;2023-04-06T04:22:24;101018.22;;;1.45;100.00
11114;BME280;5610;52.154;9.198;2023-04-06T04:25:09;101022.53;;;1.49;100.00
11114;BME280;5610;52.154;9.198;2023-04-06T04:28:02;101019.97;;;1.45;100.00
11114;BME280;5610;52.154;9.198;2023-04-06T04:30:48;101012.16;;;1.40;100.00
11114;BME280;5610;52.154;9.198;2023-04-06T04:33:33;101013.94;;;1.40;100.00
11114;BME280;5610;52.154;9.198;2023-04-06T04:36:23;101014.91;;;1.35;100.00
11114;BME280;5610;52.154;9.198;2023-04-06T04:39:11;101014.00;;;1.36;100.00
11114;BME280;5610;52.154;9.198;2023-04-06T04:42:02;101022.72;;;1.38;100.00
11114;BME280;5610;52.154;9.198;2023-04-06T04:44:51;101024.47;;;1.38;100.00
11114;BME280;5610;52.154;9.198;2023-04-06T04:47:48;101012.28;;;1.35;100.00
11114;BME280;5610;52.154;9.198;2023-04-06T04:50:36;101009.72;;;1.31;100.00
11114;BME280;5610;52.154;9.198;2023-04-06T04:53:21;101012.34;;;1.31;100.00
11114;BME280;5610;52.154;9.198;2023-04-06T04:56:08;101013.28;;;1.27;100.00
11114;BME280;5610;52.154;9.198;2023-04-06T04:58:53;101003.69;;;1.27;100.00
11114;BME280;5610;52.154;9.198;2023-04-06T05:01:40;101003.69;;;1.26;100.00
11114;BME280;5610;52.154;9.198;2023-04-06T05:04:26;101014.97;;;1.31;100.00
11114;BME280;5610;52.154;9.198;2023-04-06T05:07:15;101001.81;;;1.32;100.00
11114;BME280;5610;52.154;9.198;2023-04-06T05:10:02;101010.47;;;1.37;100.00
11114;BME280;5610;52.154;9.198;2023-04-06T05:12:54;101012.97;;;1.45;100.00
11114;BME280;5610;52.154;9.198;2023-04-06T05:15:40;101013.78;;;1.49;100.00
11114;BME280;5610;52.154;9.198;2023-04-06T05:18:39;101018.03;;;1.56;100.00
11114;BME280;5610;52.154;9.198;2023-04-06T05:21:25;101015.41;;;1.56;100.00
11114;BME280;5610;52.154;9.198;2023-04-06T05:24:19;101011.91;;;1.54;100.00
11114;BME280;5610;52.154;9.198;2023-04-06T05:27:06;101010.00;;;1.62;100.00
11114;BME280;5610;52.154;9.198;2023-04-06T05:29:51;101006.56;;;1.60;100.00
11114;BME280;5610;52.154;9.198;2023-04-06T05:32:36;101013.16;;;1.81;100.00
11114;BME280;5610;52.154;9.198;2023-04-06T05:35:23;101004.25;;;1.88;100.00
11114;BME280;5610;52.154;9.198;2023-04-06T05:38:13;101001.22;;;2.08;100.00
11114;BME280;5610;52.154;9.198;2023-04-06T05:40:58;101002.91;;;2.10;100.00
11114;BME280;5610;52.154;9.198;2023-04-06T05:43:48;101003.03;;;2.06;100.00
11114;BME280;5610;52.154;9.198;2023-04-06T05:46:33;101003.22;;;2.37;100.00
11114;BME280;5610;52.154;9.198;2023-04-06T05:49:19;101008.97;;;2.56;100.00
11114;BME280;5610;52.154;9.198;2023-04-06T05:52:06;101013.22;;;2.60;100.00
11114;BME280;5610;52.154;9.198;2023-04-06T05:54:52;101008.69;;;2.66;100.00
11114;BME280;5610;52.154;9.198;2023-04-06T05:57:37;101013.19;;;2.63;99.88
11114;BME280;5610;52.154;9.198;2023-04-06T06:00:23;101017.72;;;2.56;100.00
11114;BME280;5610;52.154;9.198;2023-04-06T06:03:19;101014.50;;;2.82;100.00
11114;BME280;5610;52.154;9.198;2023-04-06T06:06:10;101013.91;;;2.69;100.00
11114;BME280;5610;52.154;9.198;2023-04-06T06:09:15;101010.09;;;2.83;100.00
11114;BME280;5610;52.154;9.198;2023-04-06T06:12:19;101003.66;;;2.94;100.00
11114;BME280;5610;52.154;9.198;2023-04-06T06:15:07;101008.63;;;3.07;100.00
11114;BME280;5610;52.154;9.198;2023-04-06T06:17:56;101008.31;;;3.19;100.00
11114;BME280;5610;52.154;9.198;2023-04-06T06:20:43;100997.53;;;3.28;100.00
11114;BME280;5610;52.154;9.198;2023-04-06T06:23:29;101004.19;;;3.43;100.00
11114;BME280;5610;52.154;9.198;2023-04-06T06:26:16;101001.19;;;3.56;100.00
11114;BME280;5610;52.154;9.198;2023-04-06T06:29:01;100996.00;;;3.52;100.00
11114;BME280;5610;52.154;9.198;2023-04-06T06:31:47;100998.13;;;3.72;100.00
11114;BME280;5610;52.154;9.198;2023-04-06T06:34:32;100995.03;;;3.87;100.00
11114;BME280;5610;52.154;9.198;2023-04-06T06:37:21;100999.16;;;3.97;100.00
11114;BME280;5610;52.154;9.198;2023-04-06T06:40:08;101003.19;;;4.10;100.00
11114;BME280;5610;52.154;9.198;2023-04-06T06:42:56;100998.72;;;4.12;100.00
11114;BME280;5610;52.154;9.198;2023-04-06T06:45:50;101002.28;;;4.11;100.00
11114;BME280;5610;52.154;9.198;2023-04-06T06:48:35;101006.34;;;4.22;100.00
11114;BME280;5610;52.154;9.198;2023-04-06T06:51:20;100997.63;;;4.20;100.00
11114;BME280;5610;52.154;9.198;2023-04-06T06:54:07;100996.69;;;4.50;100.00
11114;BME280;5610;52.154;9.198;2023-04-06T06:56:53;100992.53;;;4.71;100.00
11114;BME280;5610;52.154;9.198;2023-04-06T06:59:40;101000.41;;;4.73;100.00
11114;BME280;5610;52.154;9.198;2023-04-06T07:02:26;100997.09;;;4.94;100.00
11114;BME280;5610;52.154;9.198;2023-04-06T07:05:12;100996.91;;;4.99;100.00
11114;BME280;5610;52.154;9.198;2023-04-06T07:07:57;100999.09;;;5.12;100.00
11114;BME280;5610;52.154;9.198;2023-04-06T07:10:43;100994.63;;;5.14;100.00
11114;BME280;5610;52.154;9.198;2023-04-06T07:13:28;100991.91;;;5.17;99.13
11114;BME280;5610;52.154;9.198;2023-04-06T07:16:17;100985.41;;;5.01;100.00
11114;BME280;5610;52.154;9.198;2023-04-06T07:19:03;100990.06;;;5.19;98.19
11114;BME280;5610;52.154;9.198;2023-04-06T07:21:48;100986.69;;;5.41;100.00
11114;BME280;5610;52.154;9.198;2023-04-06T07:24:34;100979.47;;;5.46;99.47
11114;BME280;5610;52.154;9.198;2023-04-06T07:27:19;100991.00;;;5.68;98.20
11114;BME280;5610;52.154;9.198;2023-04-06T07:30:06;100991.09;;;5.90;97.03
11114;BME280;5610;52.154;9.198;2023-04-06T07:32:53;100987.38;;;5.96;92.24
11114;BME280;5610;52.154;9.198;2023-04-06T07:35:39;100989.09;;;5.97;90.52
11114;BME280;5610;52.154;9.198;2023-04-06T07:38:25;100987.16;;;6.25;89.14
11114;BME280;5610;52.154;9.198;2023-04-06T07:41:10;100983.91;;;6.41;87.85
11114;BME280;5610;52.154;9.198;2023-04-06T07:43:56;100982.91;;;6.67;86.85
11114;BME280;5610;52.154;9.198;2023-04-06T07:46:41;100973.97;;;6.91;87.25
11114;BME280;5610;52.154;9.198;2023-04-06T07:49:28;100987.00;;;6.96;83.35
11114;BME280;5610;52.154;9.198;2023-04-06T07:52:13;100978.16;;;7.17;83.40
11114;BME280;5610;52.154;9.198;2023-04-06T07:55:00;100970.72;;;7.27;81.02
11114;BME280;5610;52.154;9.198;2023-04-06T07:57:45;100966.97;;;7.31;80.26
11114;BME280;5610;52.154;9.198;2023-04-06T08:00:31;100972.69;;;7.42;74.87
11114;BME280;5610;52.154;9.198;2023-04-06T08:03:16;100974.34;;;7.44;76.38
11114;BME280;5610;52.154;9.198;2023-04-06T08:06:03;100961.28;;;7.60;76.35
11114;BME280;5610;52.154;9.198;2023-04-06T08:08:49;100958.94;;;7.73;73.65
11114;BME280;5610;52.154;9.198;2023-04-06T08:11:35;100959.41;;;8.02;74.71
11114;BME280;5610;52.154;9.198;2023-04-06T08:14:20;100963.59;;;8.26;70.04
11114;BME280;5610;52.154;9.198;2023-04-06T08:17:06;100962.16;;;8.57;72.15
11114;BME280;5610;52.154;9.198;2023-04-06T08:19:51;100945.47;;;8.72;70.00
11114;BME280;5610;52.154;9.198;2023-04-06T08:22:38;100940.78;;;8.96;69.74
11114;BME280;5610;52.154;9.198;2023-04-06T08:25:24;100945.47;;;9.25;70.39
11114;BME280;5610;52.154;9.198;2023-04-06T08:28:10;100938.41;;;9.42;67.69
11114;BME280;5610;52.154;9.198;2023-04-06T08:30:55;100936.13;;;9.51;64.55
11114;BME280;5610;52.154;9.198;2023-04-06T08:33:40;100938.94;;;9.66;64.64
11114;BME280;5610;52.154;9.198;2023-04-06T08:36:26;100942.69;;;9.95;59.65
11114;BME280;5610;52.154;9.198;2023-04-06T08:39:13;100944.97;;;10.18;56.30
11114;BME280;5610;52.154;9.198;2023-04-06T08:41:58;100942.06;;;10.54;56.05
11114;BME280;5610;52.154;9.198;2023-04-06T08:44:47;100935.34;;;10.63;52.82
11114;BME280;5610;52.154;9.198;2023-04-06T08:47:34;100937.50;;;10.72;50.90
11114;BME280;5610;52.154;9.198;2023-04-06T08:50:20;100935.63;;;10.74;51.04
11114;BME280;5610;52.154;9.198;2023-04-06T08:53:06;100933.41;;;11.26;53.42
11114;BME280;5610;52.154;9.198;2023-04-06T08:55:53;100920.41;;;11.50;51.40
11114;BME280;5610;52.154;9.198;2023-04-06T08:58:40;100922.94;;;11.82;49.84
11114;BME280;5610;52.154;9.198;2023-04-06T09:01:26;100926.28;;;11.86;49.73
11114;BME280;5610;52.154;9.198;2023-04-06T09:04:12;100922.81;;;12.12;48.91
11114;BME280;5610;52.154;9.198;2023-04-06T09:06:57;100922.78;;;12.41;49.48
11114;BME280;5610;52.154;9.198;2023-04-06T09:09:43;100924.25;;;12.59;48.92
11114;BME280;5610;52.154;9.198;2023-04-06T09:12:33;100921.00;;;12.54;47.08
11114;BME280;5610;52.154;9.198;2023-04-06T09:15:20;100918.31;;;12.54;48.79
11114;BME280;5610;52.154;9.198;2023-04-06T09:18:05;100915.28;;;13.00;47.60
11114;BME280;5610;52.154;9.198;2023-04-06T09:20:57;100913.03;;;13.33;47.93
11114;BME280;5610;52.154;9.198;2023-04-06T09:23:42;100916.22;;;13.38;47.48
11114;BME280;5610;52.154;9.198;2023-04-06T09:26:28;100910.03;;;13.63;46.01
11114;BME280;5610;52.154;9.198;2023-04-06T09:29:23;100909.63;;;13.69;45.20
11114;BME280;5610;52.154;9.198;2023-04-06T09:32:11;100905.88;;;14.21;45.25
11114;BME280;5610;52.154;9.198;2023-04-06T09:35:07;100908.66;;;14.33;44.12
11114;BME280;5610;52.154;9.198;2023-04-06T09:37:53;100907.00;;;14.55;44.35
11114;BME280;5610;52.154;9.198;2023-04-06T09:40:48;100905.81;;;15.19;43.59
11114;BME280;5610;52.154;9.198;2023-04-06T09:43:33;100893.19;;;15.54;42.04
11114;BME280;5610;52.154;9.198;2023-04-06T09:46:21;100904.88;;;15.42;41.35
11114;BME280;5610;52.154;9.198;2023-04-06T09:49:07;100901.16;;;15.67;39.73
11114;BME280;5610;52.154;9.198;2023-04-06T09:51:55;100892.81;;;16.37;39.56
11114;BME280;5610;52.154;9.198;2023-04-06T09:54:42;100891.53;;;16.96;39.86
11114;BME280;5610;52.154;9.198;2023-04-06T09:57:32;100891.19;;;16.46;37.29
11114;BME280;5610;52.154;9.198;2023-04-06T10:00:21;100890.06;;;16.71;37.91
11114;BME280;5610;52.154;9.198;2023-04-06T10:03:14;100886.22;;;16.85;36.81
11114;BME280;5610;52.154;9.198;2023-04-06T10:06:05;100887.28;;;17.56;38.28
11114;BME280;5610;52.154;9.198;2023-04-06T10:08:55;100880.41;;;17.42;36.26
11114;BME280;5610;52.154;9.198;2023-04-06T10:11:42;100876.38;;;16.95;36.92
11114;BME280;5610;52.154;9.198;2023-04-06T10:14:27;100885.66;;;16.59;36.33
11114;BME280;5610;52.154;9.198;2023-04-06T10:17:12;100881.41;;;16.56;35.98
11114;BME280;5610;52.154;9.198;2023-04-06T10:20:03;100872.66;;;17.28;36.51
11114;BME280;5610;52.154;9.198;2023-04-06T10:22:53;100872.19;;;17.44;35.97
11114;BME280;5610;52.154;9.198;2023-04-06T10:25:52;100869.00;;;18.21;34.52
11114;BME280;5610;52.154;9.198;2023-04-06T10:28:41;100868.09;;;18.70;33.78
11114;BME280;5610;52.154;9.198;2023-04-06T10:31:27;100875.78;;;18.75;33.01
11114;BME280;5610;52.154;9.198;2023-04-06T10:34:13;100871.78;;;18.88;32.67
11114;BME280;5610;52.154;9.198;2023-04-06T10:37:10;100870.63;;;20.14;32.22
11114;BME280;5610;52.154;9.198;2023-04-06T10:39:56;100871.19;;;22.28;28.85
11114;BME280;5610;52.154;9.198;2023-04-06T10:42:42;100860.00;;;24.33;28.03
11114;BME280;5610;52.154;9.198;2023-04-06T10:45:31;100849.25;;;26.78;25.50
11114;BME280;5610;52.154;9.198;2023-04-06T10:48:17;100855.84;;;26.83;26.05
11114;BME280;5610;52.154;9.198;2023-04-06T10:51:07;100848.31;;;27.98;23.84
11114;BME280;5610;52.154;9.198;2023-04-06T10:53:55;100845.28;;;27.51;24.18
11114;BME280;5610;52.154;9.198;2023-04-06T10:56:40;100845.72;;;30.68;23.17
11114;BME280;5610;52.154;9.198;2023-04-06T10:59:28;100836.78;;;31.29;22.09
11114;BME280;5610;52.154;9.198;2023-04-06T11:02:20;100834.53;;;31.44;22.10
11114;BME280;5610;52.154;9.198;2023-04-06T11:05:07;100839.41;;;31.24;21.78
11114;BME280;5610;52.154;9.198;2023-04-06T11:07:52;100833.94;;;32.34;21.22
11114;BME280;5610;52.154;9.198;2023-04-06T11:10:39;100826.50;;;31.86;20.93
11114;BME280;5610;52.154;9.198;2023-04-06T11:13:24;100822.69;;;32.77;20.33
11114;BME280;5610;52.154;9.198;2023-04-06T11:16:14;100839.47;;;31.10;21.15
11114;BME280;5610;52.154;9.198;2023-04-06T11:19:01;100821.25;;;31.59;22.50
11114;BME280;5610;52.154;9.198;2023-04-06T11:21:48;100817.81;;;30.26;21.54
11114;BME280;5610;52.154;9.198;2023-04-06T11:24:33;100803.75;;;31.90;21.45
11114;BME280;5610;52.154;9.198;2023-04-06T11:27:20;100805.06;;;34.64;19.97
11114;BME280;5610;52.154;9.198;2023-04-06T11:30:08;100810.84;;;35.63;19.60
11114;BME280;5610;52.154;9.198;2023-04-06T11:33:00;100793.63;;;36.81;18.12
11114;BME280;5610;52.154;9.198;2023-04-06T11:35:46;100799.28;;;35.88;18.56
11114;BME280;5610;52.154;9.198;2023-04-06T11:38:32;100788.47;;;35.48;18.87
11114;BME280;5610;52.154;9.198;2023-04-06T11:41:18;100781.41;;;37.51;18.68
11114;BME280;5610;52.154;9.198;2023-04-06T11:44:05;100779.31;;;38.77;18.63
11114;BME280;5610;52.154;9.198;2023-04-06T11:46:52;100773.69;;;39.08;17.30
11114;BME280;5610;52.154;9.198;2023-04-06T11:49:39;100763.34;;;40.14;17.06
11114;BME280;5610;52.154;9.198;2023-04-06T11:52:27;100759.22;;;39.96;17.28
11114;BME280;5610;52.154;9.198;2023-04-06T11:55:20;100762.44;;;38.06;18.59
11114;BME280;5610;52.154;9.198;2023-04-06T11:58:06;100756.13;;;36.46;18.64
11114;BME280;5610;52.154;9.198;2023-04-06T12:00:52;100755.72;;;37.91;19.59
11114;BME280;5610;52.154;9.198;2023-04-06T12:03:38;100757.38;;;37.87;18.34
11114;BME280;5610;52.154;9.198;2023-04-06T12:06:23;100767.03;;;38.73;17.16
11114;BME280;5610;52.154;9.198;2023-04-06T12:09:09;100759.31;;;34.90;18.26
11114;BME280;5610;52.154;9.198;2023-04-06T12:11:55;100745.63;;;35.77;18.26
11114;BME280;5610;52.154;9.198;2023-04-06T12:14:40;100749.38;;;38.06;17.83
11114;BME280;5610;52.154;9.198;2023-04-06T12:17:27;100743.28;;;38.14;18.25
11114;BME280;5610;52.154;9.198;2023-04-06T12:20:13;100752.03;;;37.28;17.74
11114;BME280;5610;52.154;9.198;2023-04-06T12:22:58;100744.72;;;38.37;17.27
11114;BME280;5610;52.154;9.198;2023-04-06T12:25:44;100741.69;;;38.85;17.00
11114;BME280;5610;52.154;9.198;2023-04-06T12:28:29;100745.84;;;35.32;17.40
11114;BME280;5610;52.154;9.198;2023-04-06T12:31:15;100746.09;;;35.91;17.75
11114;BME280;5610;52.154;9.198;2023-04-06T12:34:02;100743.88;;;35.93;17.75
11114;BME280;5610;52.154;9.198;2023-04-06T12:36:48;100744.44;;;34.79;17.77
11114;BME280;5610;52.154;9.198;2023-04-06T12:39:33;100736.63;;;38.26;18.25
11114;BME280;5610;52.154;9.198;2023-04-06T12:42:19;100738.31;;;36.42;17.86
11114;BME280;5610;52.154;9.198;2023-04-06T12:45:06;100743.31;;;38.55;16.21
11114;BME280;5610;52.154;9.198;2023-04-06T12:47:51;100739.97;;;39.30;15.81
11114;BME280;5610;52.154;9.198;2023-04-06T12:50:38;100733.78;;;40.52;16.17
11114;BME280;5610;52.154;9.198;2023-04-06T12:53:23;100724.28;;;40.08;15.61
11114;BME280;5610;52.154;9.198;2023-04-06T12:56:14;100727.28;;;40.17;15.76
11114;BME280;5610;52.154;9.198;2023-04-06T12:59:00;100753.03;;;35.94;16.19
11114;BME280;5610;52.154;9.198;2023-04-06T13:01:46;100720.34;;;35.52;16.51
11114;BME280;5610;52.154;9.198;2023-04-06T13:04:32;100733.91;;;37.58;16.09
11114;BME280;5610;52.154;9.198;2023-04-06T13:07:19;100726.75;;;34.18;16.12
11114;BME280;5610;52.154;9.198;2023-04-06T13:10:05;100730.00;;;35.71;16.04
11114;BME280;5610;52.154;9.198;2023-04-06T13:12:51;100717.28;;;37.26;15.76
11114;BME280;5610;52.154;9.198;2023-04-06T13:15:36;100712.41;;;36.96;15.82
11114;BME280;5610;52.154;9.198;2023-04-06T13:18:22;100719.16;;;37.62;14.93
11114;BME280;5610;52.154;9.198;2023-04-06T13:21:07;100709.38;;;38.53;15.92
11114;BME280;5610;52.154;9.198;2023-04-06T13:23:54;100714.06;;;39.14;15.55
11114;BME280;5610;52.154;9.198;2023-04-06T13:26:40;100706.28;;;39.06;15.80
11114;BME280;5610;52.154;9.198;2023-04-06T13:29:25;100695.47;;;41.39;14.83
11114;BME280;5610;52.154;9.198;2023-04-06T13:32:11;100688.78;;;41.11;14.30
11114;BME280;5610;52.154;9.198;2023-04-06T13:34:57;100687.41;;;41.57;14.81
11114;BME280;5610;52.154;9.198;2023-04-06T13:37:42;100681.81;;;40.17;15.41
11114;BME280;5610;52.154;9.198;2023-04-06T13:40:29;100688.16;;;42.57;14.57
11114;BME280;5610;52.154;9.198;2023-04-06T13:43:14;100681.84;;;40.80;14.87
11114;BME280;5610;52.154;9.198;2023-04-06T13:46:02;100681.16;;;40.30;15.90
11114;BME280;5610;52.154;9.198;2023-04-06T13:48:47;100682.38;;;41.35;15.39
11114;BME280;5610;52.154;9.198;2023-04-06T13:51:34;100672.38;;;41.53;15.14
11114;BME280;5610;52.154;9.198;2023-04-06T13:54:21;100671.81;;;41.75;15.57
11114;BME280;5610;52.154;9.198;2023-04-06T13:57:07;100678.50;;;40.49;15.43
11114;BME280;5610;52.154;9.198;2023-04-06T13:59:52;100672.28;;;39.19;15.06
11114;BME280;5610;52.154;9.198;2023-04-06T14:02:38;100669.34;;;39.54;15.52
11114;BME280;5610;52.154;9.198;2023-04-06T14:05:23;100666.75;;;38.83;16.88
11114;BME280;5610;52.154;9.198;2023-04-06T14:08:10;100660.34;;;39.68;15.78
11114;BME280;5610;52.154;9.198;2023-04-06T14:10:55;100660.63;;;39.66;16.27
11114;BME280;5610;52.154;9.198;2023-04-06T14:13:42;100659.56;;;40.01;16.23
11114;BME280;5610;52.154;9.198;2023-04-06T14:16:27;100668.63;;;40.27;15.90
11114;BME280;5610;52.154;9.198;2023-04-06T14:19:14;100671.91;;;39.36;15.49
11114;BME280;5610;52.154;9.198;2023-04-06T14:21:59;100650.78;;;37.66;16.46
11114;BME280;5610;52.154;9.198;2023-04-06T14:24:44;100651.47;;;38.70;16.86
11114;BME280;5610;52.154;9.198;2023-04-06T14:27:30;100648.97;;;39.59;16.90
11114;BME280;5610;52.154;9.198;2023-04-06T14:30:17;100650.81;;;39.04;15.91
11114;BME280;5610;52.154;9.198;2023-04-06T14:33:03;100646.34;;;39.08;17.16
11114;BME280;5610;52.154;9.198;2023-04-06T14:35:48;100651.25;;;39.42;16.25
11114;BME280;5610;52.154;9.198;2023-04-06T14:38:34;100642.25;;;38.55;16.21
11114;BME280;5610;52.154;9.198;2023-04-06T14:41:22;100646.72;;;37.27;16.58
11114;BME280;5610;52.154;9.198;2023-04-06T14:44:07;100649.03;;;36.93;17.15
11114;BME280;5610;52.154;9.198;2023-04-06T14:46:57;100625.97;;;36.87;17.30
11114;BME280;5610;52.154;9.198;2023-04-06T14:49:42;100621.47;;;36.44;16.64